createdAt,value
2023-01-21T00:00:13.677Z,102775.88
2023-01-21T00:02:15.200Z,102777.41
2023-01-21T00:04:16.776Z,102780.75
2023-01-21T00:06:18.306Z,102782.38
2023-01-21T00:08:20.037Z,102779.63
2023-01-21T00:10:21.492Z,102785.53
2023-01-21T00:12:22.975Z,102790.63
2023-01-21T00:14:24.598Z,102800.03
2023-01-21T00:16:26.101Z,102802.53
2023-01-21T00:18:29.946Z,102805.03
2023-01-21T00:20:31.722Z,102801.47
2023-01-21T00:22:33.478Z,102807.47
2023-01-21T00:24:34.980Z,102811.69
2023-01-21T00:26:36.488Z,102815.09
2023-01-21T00:28:38.663Z,102814.03
2023-01-21T00:30:41.588Z,102823.50
2023-01-21T00:32:43.108Z,102825.13
2023-01-21T00:34:44.585Z,102823.41
2023-01-21T00:36:46.031Z,102819.22
2023-01-21T00:38:51.063Z,102817.59
2023-01-21T00:40:52.548Z,102831.50
2023-01-21T00:42:53.987Z,102838.56
2023-01-21T00:44:57.452Z,102835.16
2023-01-21T00:46:58.946Z,102839.59
2023-01-21T00:49:00.432Z,102844.88
2023-01-21T00:51:02.311Z,102847.63
2023-01-21T00:53:03.781Z,102849.47
2023-01-21T00:55:05.887Z,102847.94
2023-01-21T00:57:08.456Z,102842.91
2023-01-21T00:59:10.085Z,102859.50
2023-01-21T01:01:14.770Z,102863.16
2023-01-21T01:03:16.485Z,102859.75
2023-01-21T01:05:19.425Z,102867.72
2023-01-21T01:07:20.878Z,102866.91
2023-01-21T01:09:22.335Z,102873.06
2023-01-21T01:11:26.712Z,102878.41
2023-01-21T01:13:28.587Z,102888.94
2023-01-21T01:15:30.048Z,102886.41
2023-01-21T01:17:31.584Z,102883.97
2023-01-21T01:19:33.058Z,102897.00
2023-01-21T01:21:34.536Z,102898.00
2023-01-21T01:23:36.620Z,102897.25
2023-01-21T01:25:38.141Z,102901.78
2023-01-21T01:27:39.615Z,102900.25
2023-01-21T01:29:41.091Z,102901.13
2023-01-21T01:31:44.211Z,102905.66
2023-01-21T01:33:46.608Z,102919.75
2023-01-21T01:35:48.879Z,102918.22
2023-01-21T01:37:50.362Z,102923.59
2023-01-21T01:39:51.821Z,102920.25
2023-01-21T01:41:53.906Z,102919.44
2023-01-21T01:44:04.634Z,102917.91
2023-01-21T01:46:06.243Z,102919.69
2023-01-21T01:48:10.067Z,102925.03
2023-01-21T01:50:18.143Z,102927.78
2023-01-21T01:52:21.296Z,102926.22
2023-01-21T01:54:32.307Z,102929.84
2023-01-21T01:56:37.525Z,102930.81
2023-01-21T01:58:39.914Z,102938.75
2023-01-21T02:00:41.483Z,102935.44
2023-01-21T02:02:43.939Z,102932.09
2023-01-21T02:04:56.846Z,102930.56
2023-01-21T02:06:58.454Z,102936.63
2023-01-21T02:09:00.110Z,102931.59
2023-01-21T02:11:02.732Z,102927.38
2023-01-21T02:13:04.616Z,102934.44
2023-01-21T02:15:07.082Z,102936.31
2023-01-21T02:17:36.619Z,102944.16
2023-01-21T02:19:46.884Z,102944.25
2023-01-21T02:22:00.509Z,102938.25
2023-01-21T02:24:13.840Z,102942.63
2023-01-21T02:26:27.122Z,102951.28
2023-01-21T02:28:59.405Z,102947.88
2023-01-21T02:31:25.360Z,102948.78
2023-01-21T02:34:01.562Z,102946.19
2023-01-21T02:36:21.456Z,102951.38
2023-01-21T02:38:31.827Z,102956.72
2023-01-21T02:40:44.610Z,102958.56
2023-01-21T02:42:47.274Z,102955.97
2023-01-21T02:44:56.615Z,102967.41
2023-01-21T02:47:16.670Z,102959.69
2023-01-21T02:49:31.758Z,102959.69
2023-01-21T02:51:33.245Z,102967.53
2023-01-21T02:53:36.441Z,102965.03
2023-01-21T02:55:38.517Z,102959.84
2023-01-21T02:57:51.015Z,102964.28
2023-01-21T02:59:55.517Z,102974.81
2023-01-21T03:02:12.185Z,102961.91
2023-01-21T03:04:31.853Z,102966.28
2023-01-21T03:06:43.804Z,102972.44
2023-01-21T03:08:54.085Z,102974.31
2023-01-21T03:11:31.101Z,102963.91
2023-01-21T03:13:59.458Z,102973.56
2023-01-21T03:16:20.467Z,102973.63
2023-01-21T03:18:29.884Z,102972.81
2023-01-21T03:20:38.206Z,102968.53
2023-01-21T03:22:40.576Z,102965.94
2023-01-21T03:24:46.531Z,102962.63
2023-01-21T03:26:52.257Z,102970.56
2023-01-21T03:28:58.834Z,102956.75
2023-01-21T03:31:07.816Z,102958.63
2023-01-21T03:33:12.738Z,102964.78
2023-01-21T03:35:36.515Z,102959.56
2023-01-21T03:37:52.940Z,102963.13
2023-01-21T03:40:15.602Z,102967.50
2023-01-21T03:42:17.825Z,102963.22
2023-01-21T03:44:19.454Z,102958.91
2023-01-21T03:46:44.820Z,102965.00
2023-01-21T03:48:57.420Z,102969.38
2023-01-21T03:51:04.683Z,102981.38
2023-01-21T03:53:07.342Z,102976.19
2023-01-21T03:55:10.237Z,102974.34
2023-01-21T03:57:11.728Z,102965.66
2023-01-21T03:59:13.444Z,102978.56
2023-01-21T04:01:15.016Z,102975.00
2023-01-21T04:03:16.523Z,102981.75
2023-01-21T04:05:18.068Z,102978.28
2023-01-21T04:07:19.815Z,102975.41
2023-01-21T04:09:21.284Z,102980.47
2023-01-21T04:11:22.778Z,102979.50
2023-01-21T04:13:24.286Z,102979.28
2023-01-21T04:15:25.821Z,102987.72
2023-01-21T04:17:28.743Z,102987.50
2023-01-21T04:19:30.261Z,102994.16
2023-01-21T04:21:31.944Z,102993.13
2023-01-21T04:23:33.419Z,102995.56
2023-01-21T04:25:34.878Z,102992.88
2023-01-21T04:27:36.333Z,102992.88
2023-01-21T04:29:37.858Z,103007.50
2023-01-21T04:31:39.373Z,102999.72
2023-01-21T04:33:40.899Z,103002.31
2023-01-21T04:35:42.375Z,102998.00
2023-01-21T04:37:43.817Z,103012.75
2023-01-21T04:39:45.337Z,103007.66
2023-01-21T04:41:46.847Z,103009.44
2023-01-21T04:43:48.311Z,102996.38
2023-01-21T04:45:50.224Z,103011.94
2023-01-21T04:47:51.742Z,103009.44
2023-01-21T04:49:53.570Z,103007.50
2023-01-21T04:51:55.108Z,103009.13
2023-01-21T04:53:56.634Z,103016.75
2023-01-21T04:55:58.200Z,103019.16
2023-01-21T04:57:59.667Z,103019.97
2023-01-21T05:00:01.192Z,103025.28
2023-01-21T05:02:02.799Z,103026.16
2023-01-21T05:04:04.506Z,103027.06
2023-01-21T05:06:06.142Z,103032.13
2023-01-21T05:08:07.898Z,103038.25
2023-01-21T05:10:16.203Z,103042.44
2023-01-21T05:12:17.875Z,103046.50
2023-01-21T05:14:19.398Z,103051.44
2023-01-21T05:16:20.980Z,103059.22
2023-01-21T05:18:22.479Z,103056.63
2023-01-21T05:20:24.219Z,103057.59
2023-01-21T05:22:25.709Z,103060.19
2023-01-21T05:24:27.222Z,103067.16
2023-01-21T05:26:28.663Z,103069.75
2023-01-21T05:28:30.207Z,103081.94
2023-01-21T05:30:31.788Z,103075.94
2023-01-21T05:32:33.267Z,103081.19
2023-01-21T05:34:34.724Z,103082.97
2023-01-21T05:36:36.287Z,103081.34
2023-01-21T05:38:37.744Z,103088.44
2023-01-21T05:40:39.212Z,103090.22
2023-01-21T05:42:40.869Z,103093.06
2023-01-21T05:44:42.308Z,103092.41
2023-01-21T05:46:43.801Z,103097.69
2023-01-21T05:48:45.308Z,103098.66
2023-01-21T05:50:47.918Z,103100.50
2023-01-21T05:52:49.419Z,103095.47
2023-01-21T05:55:01.234Z,103102.44
2023-01-21T05:57:03.857Z,103099.13
2023-01-21T05:59:05.345Z,103103.56
2023-01-21T06:01:06.865Z,103110.63
2023-01-21T06:03:08.353Z,103115.09
2023-01-21T06:05:09.803Z,103105.59
2023-01-21T06:07:11.316Z,103112.50
2023-01-21T06:09:12.829Z,103117.75
2023-01-21T06:11:14.283Z,103111.75
2023-01-21T06:13:16.524Z,103123.94
2023-01-21T06:15:18.778Z,103118.00
2023-01-21T06:17:20.290Z,103126.75
2023-01-21T06:19:21.756Z,103129.44
2023-01-21T06:21:23.227Z,103127.03
2023-01-21T06:23:24.696Z,103133.19
2023-01-21T06:25:26.419Z,103134.09
2023-01-21T06:27:27.920Z,103141.13
2023-01-21T06:29:29.385Z,103135.13
2023-01-21T06:31:31.066Z,103139.50
2023-01-21T06:33:32.605Z,103141.22
2023-01-21T06:35:34.151Z,103139.50
2023-01-21T06:37:35.660Z,103140.25
2023-01-21T06:39:37.577Z,103141.78
2023-01-21T06:41:39.429Z,103138.94
2023-01-21T06:43:40.891Z,103132.84
2023-01-21T06:45:42.384Z,103143.22
2023-01-21T06:47:44.527Z,103144.13
2023-01-21T06:49:45.958Z,103148.50
2023-01-21T06:51:47.484Z,103149.41
2023-01-21T06:53:48.934Z,103149.41
2023-01-21T06:55:50.413Z,103152.88
2023-01-21T06:57:51.867Z,103161.75
2023-01-21T06:59:53.305Z,103166.13
2023-01-21T07:01:55.176Z,103171.41
2023-01-21T07:03:56.758Z,103168.91
2023-01-21T07:05:58.305Z,103171.56
2023-01-21T07:07:59.802Z,103173.34
2023-01-21T07:10:01.323Z,103178.47
2023-01-21T07:12:02.768Z,103179.34
2023-01-21T07:14:04.255Z,103181.22
2023-01-21T07:16:07.048Z,103180.41
2023-01-21T07:18:08.689Z,103179.59
2023-01-21T07:20:12.372Z,103185.75
2023-01-21T07:22:13.921Z,103187.53
2023-01-21T07:24:15.358Z,103197.19
2023-01-21T07:26:16.816Z,103192.97
2023-01-21T07:28:18.304Z,103199.97
2023-01-21T07:30:21.099Z,103212.13
2023-01-21T07:32:22.646Z,103206.13
2023-01-21T07:34:24.123Z,103206.13
2023-01-21T07:36:26.631Z,103207.91
2023-01-21T07:38:28.247Z,103214.00
2023-01-21T07:40:29.713Z,103209.69
2023-01-21T07:42:31.157Z,103217.47
2023-01-21T07:44:32.655Z,103208.88
2023-01-21T07:46:34.890Z,103207.09
2023-01-21T07:48:36.447Z,103211.47
2023-01-21T07:50:38.086Z,103217.47
2023-01-21T07:52:39.579Z,103215.69
2023-01-21T07:54:41.094Z,103221.88
2023-01-21T07:56:42.548Z,103221.88
2023-01-21T07:58:44.336Z,103230.56
2023-01-21T08:00:45.793Z,103224.53
2023-01-21T08:02:50.648Z,103227.22
2023-01-21T08:04:52.133Z,103233.31
2023-01-21T08:06:56.914Z,103236.81
2023-01-21T08:08:58.455Z,103228.13
2023-01-21T08:11:00.048Z,103248.97
2023-01-21T08:13:02.001Z,103235.16
2023-01-21T08:15:03.743Z,103241.41
2023-01-21T08:17:05.227Z,103246.78
2023-01-21T08:19:06.802Z,103246.69
2023-01-21T08:21:08.252Z,103256.34
2023-01-21T08:23:09.720Z,103263.25
2023-01-21T08:25:11.711Z,103267.72
2023-01-21T08:27:13.310Z,103269.63
2023-01-21T08:29:15.159Z,103271.47
2023-01-21T08:31:16.693Z,103274.25
2023-01-21T08:33:18.284Z,103278.69
2023-01-21T08:35:19.765Z,103275.22
2023-01-21T08:37:21.253Z,103282.19
2023-01-21T08:39:22.766Z,103280.47
2023-01-21T08:41:25.466Z,103278.78
2023-01-21T08:43:27.321Z,103287.53
2023-01-21T08:45:29.863Z,103288.53
2023-01-21T08:47:31.389Z,103295.66
2023-01-21T08:49:32.831Z,103299.22
2023-01-21T08:51:34.545Z,103296.78
2023-01-21T08:53:36.058Z,103302.16
2023-01-21T08:55:37.503Z,103304.91
2023-01-21T08:57:38.978Z,103304.75
2023-01-21T08:59:40.429Z,103305.41
2023-01-21T09:01:42.455Z,103311.56
2023-01-21T09:03:43.911Z,103307.50
2023-01-21T09:05:46.421Z,103315.31
2023-01-21T09:07:47.935Z,103315.22
2023-01-21T09:09:49.973Z,103315.53
2023-01-21T09:11:52.535Z,103320.66
2023-01-21T09:13:54.060Z,103313.75
2023-01-21T09:15:55.536Z,103314.88
2023-01-21T09:17:56.982Z,103322.00
2023-01-21T09:19:58.433Z,103313.44
2023-01-21T09:21:59.900Z,103321.13
2023-01-21T09:24:02.046Z,103316.19
2023-01-21T09:26:07.539Z,103312.84
2023-01-21T09:28:09.004Z,103319.03
2023-01-21T09:30:10.806Z,103316.66
2023-01-21T09:32:12.407Z,103322.44
2023-01-21T09:34:13.962Z,103329.50
2023-01-21T09:36:21.500Z,103331.44
2023-01-21T09:38:24.281Z,103337.75
2023-01-21T09:40:25.805Z,103346.63
2023-01-21T09:42:32.013Z,103350.34
2023-01-21T09:44:44.661Z,103352.88
2023-01-21T09:46:56.081Z,103356.44
2023-01-21T09:49:00.870Z,103362.53
2023-01-21T09:51:07.015Z,103366.03
2023-01-21T09:53:27.338Z,103372.06
2023-01-21T09:55:40.095Z,103370.25
2023-01-21T09:58:05.601Z,103371.97
2023-01-21T10:00:22.127Z,103375.69
2023-01-21T10:02:30.630Z,103377.78
2023-01-21T10:04:50.270Z,103371.22
2023-01-21T10:06:54.740Z,103375.41
2023-01-21T10:08:59.192Z,103379.56
2023-01-21T10:11:34.802Z,103379.72
2023-01-21T10:14:08.765Z,103376.72
2023-01-21T10:16:35.386Z,103385.00
2023-01-21T10:18:40.585Z,103384.41
2023-01-21T10:21:14.224Z,103382.25
2023-01-21T10:23:47.909Z,103380.75
2023-01-21T10:25:50.423Z,103380.91
2023-01-21T10:27:53.140Z,103389.69
2023-01-21T10:30:02.196Z,103383.97
2023-01-21T10:32:06.949Z,103369.53
2023-01-21T10:34:15.580Z,103374.22
2023-01-21T10:36:23.577Z,103375.94
2023-01-21T10:38:31.162Z,103376.91
2023-01-21T10:40:55.750Z,103376.81
2023-01-21T10:43:07.757Z,103367.00
2023-01-21T10:45:21.473Z,103372.16
2023-01-21T10:47:41.619Z,103369.63
2023-01-21T10:50:14.070Z,103376.31
2023-01-21T10:52:21.609Z,103381.31
2023-01-21T10:54:51.090Z,103387.25
2023-01-21T10:57:11.807Z,103384.66
2023-01-21T10:59:18.957Z,103392.53
2023-01-21T11:01:29.338Z,103408.91
2023-01-21T11:03:44.251Z,103412.97
2023-01-21T11:05:48.483Z,103404.25
2023-01-21T11:07:52.009Z,103409.41
2023-01-21T11:09:53.810Z,103403.22
2023-01-21T11:11:55.334Z,103401.59
2023-01-21T11:13:57.191Z,103401.59
2023-01-21T11:16:00.180Z,103404.84
2023-01-21T11:18:22.385Z,103393.47
2023-01-21T11:20:39.756Z,103397.94
2023-01-21T11:22:45.505Z,103390.88
2023-01-21T11:24:49.565Z,103393.56
2023-01-21T11:26:59.740Z,103390.06
2023-01-21T11:29:07.360Z,103395.25
2023-01-21T11:31:14.746Z,103389.91
2023-01-21T11:33:22.681Z,103384.78
2023-01-21T11:35:24.381Z,103383.28
2023-01-21T11:37:31.117Z,103387.91
2023-01-21T11:39:36.908Z,103388.22
2023-01-21T11:41:38.552Z,103383.03
2023-01-21T11:43:44.584Z,103386.59
2023-01-21T11:45:51.293Z,103382.28
2023-01-21T11:47:54.274Z,103375.50
2023-01-21T11:50:02.421Z,103383.47
2023-01-21T11:52:15.332Z,103365.22
2023-01-21T11:54:16.793Z,103367.97
2023-01-21T11:56:18.314Z,103374.00
2023-01-21T11:58:26.557Z,103370.50
2023-01-21T12:00:28.738Z,103376.38
2023-01-21T12:02:44.057Z,103378.03
2023-01-21T12:05:09.283Z,103372.69
2023-01-21T12:07:21.067Z,103370.00
2023-01-21T12:09:22.813Z,103379.59
2023-01-21T12:11:28.184Z,103377.06
2023-01-21T12:13:35.547Z,103366.78
2023-01-21T12:15:40.094Z,103367.81
2023-01-21T12:17:57.196Z,103366.19
2023-01-21T12:20:29.546Z,103361.88
2023-01-21T12:22:36.623Z,103361.81
2023-01-21T12:24:47.350Z,103370.34
2023-01-21T12:26:52.924Z,103371.19
2023-01-21T12:29:13.142Z,103371.09
2023-01-21T12:31:25.954Z,103368.44
2023-01-21T12:33:30.577Z,103373.56
2023-01-21T12:35:41.170Z,103371.94
2023-01-21T12:37:51.770Z,103374.53
2023-01-21T12:39:56.503Z,103365.91
2023-01-21T12:42:07.491Z,103365.22
2023-01-21T12:44:31.359Z,103361.81
2023-01-21T12:46:40.790Z,103362.84
2023-01-21T12:49:05.526Z,103373.47
2023-01-21T12:51:12.313Z,103365.81
2023-01-21T12:53:38.623Z,103366.03
2023-01-21T12:56:37.291Z,103372.94
2023-01-21T12:58:49.033Z,103372.78
2023-01-21T13:00:52.651Z,103376.16
2023-01-21T13:03:01.746Z,103378.75
2023-01-21T13:05:23.333Z,103381.44
2023-01-21T13:07:43.081Z,103387.31
2023-01-21T13:10:00.970Z,103386.44
2023-01-21T13:12:15.875Z,103381.16
2023-01-21T13:14:26.910Z,103388.00
2023-01-21T13:16:29.741Z,103392.25
2023-01-21T13:18:36.171Z,103393.88
2023-01-21T13:20:42.706Z,103393.88
2023-01-21T13:23:08.086Z,103394.84
2023-01-21T13:25:28.395Z,103393.06
2023-01-21T13:28:14.753Z,103396.63
2023-01-21T13:30:40.628Z,103389.72
2023-01-21T13:33:06.770Z,103392.38
2023-01-21T13:35:42.531Z,103390.53
2023-01-21T13:38:10.236Z,103386.13
2023-01-21T13:40:49.047Z,103395.66
2023-01-21T13:43:05.111Z,103393.88
2023-01-21T13:45:54.802Z,103395.50
2023-01-21T13:48:32.159Z,103392.09
2023-01-21T13:51:05.262Z,103402.50
2023-01-21T13:53:06.675Z,103401.53
2023-01-21T13:55:29.907Z,103398.72
2023-01-21T13:57:52.615Z,103399.69
2023-01-21T13:59:57.596Z,103402.28
2023-01-21T14:02:14.260Z,103411.81
2023-01-21T14:04:35.196Z,103412.56
2023-01-21T14:06:56.473Z,103413.38
2023-01-21T14:09:33.140Z,103413.44
2023-01-21T14:11:53.489Z,103411.06
2023-01-21T14:14:13.637Z,103407.88
2023-01-21T14:16:15.044Z,103408.91
2023-01-21T14:18:21.834Z,103417.63
2023-01-21T14:20:40.961Z,103419.31
2023-01-21T14:22:51.403Z,103416.94
2023-01-21T14:25:17.549Z,103422.50
2023-01-21T14:27:26.743Z,103417.75
2023-01-21T14:29:40.362Z,103415.28
2023-01-21T14:31:51.406Z,103419.59
2023-01-21T14:34:13.253Z,103409.94
2023-01-21T14:36:20.952Z,103416.84
2023-01-21T14:38:50.650Z,103422.88
2023-01-21T14:41:08.083Z,103415.88
2023-01-21T14:43:19.390Z,103421.09
2023-01-21T14:45:24.745Z,103417.53
2023-01-21T14:47:28.997Z,103429.59
2023-01-21T14:49:41.825Z,103420.88
2023-01-21T14:51:47.785Z,103424.22
2023-01-21T14:53:52.165Z,103421.56
2023-01-21T14:56:15.998Z,103428.47
2023-01-21T14:58:27.833Z,103429.91
2023-01-21T15:00:33.767Z,103416.66
2023-01-21T15:03:15.533Z,103423.41
2023-01-21T15:05:21.619Z,103422.31
2023-01-21T15:07:28.491Z,103425.56
2023-01-21T15:09:37.347Z,103419.34
2023-01-21T15:11:40.342Z,103419.06
2023-01-21T15:13:42.107Z,103417.94
2023-01-21T15:16:15.339Z,103418.63
2023-01-21T15:18:25.860Z,103414.97
2023-01-21T15:20:42.290Z,103426.34
2023-01-21T15:22:46.752Z,103428.06
2023-01-21T15:25:14.367Z,103424.56
2023-01-21T15:27:26.930Z,103432.38
2023-01-21T15:29:37.493Z,103435.88
2023-01-21T15:31:41.994Z,103435.81
2023-01-21T15:33:48.185Z,103423.44
2023-01-21T15:35:50.197Z,103423.28
2023-01-21T15:37:59.314Z,103422.25
2023-01-21T15:40:07.119Z,103427.31
2023-01-21T15:42:36.053Z,103426.25
2023-01-21T15:45:12.580Z,103426.03
2023-01-21T15:47:24.727Z,103420.66
2023-01-21T15:50:06.884Z,103439.59
2023-01-21T15:52:33.237Z,103441.06
2023-01-21T15:55:06.828Z,103436.50
2023-01-21T15:57:35.684Z,103437.16
2023-01-21T15:59:55.764Z,103440.44
2023-01-21T16:02:19.905Z,103443.84
2023-01-21T16:04:40.664Z,103441.75
2023-01-21T16:06:58.160Z,103442.25
2023-01-21T16:09:08.190Z,103442.06
2023-01-21T16:11:45.295Z,103440.38
2023-01-21T16:14:01.336Z,103443.53
2023-01-21T16:16:08.724Z,103442.47
2023-01-21T16:18:44.037Z,103441.47
2023-01-21T16:20:50.177Z,103445.53
2023-01-21T16:22:56.857Z,103441.06
2023-01-21T16:25:07.639Z,103439.38
2023-01-21T16:27:20.430Z,103440.19
2023-01-21T16:29:21.940Z,103440.91
2023-01-21T16:31:23.845Z,103438.97
2023-01-21T16:33:25.529Z,103433.59
2023-01-21T16:35:41.583Z,103431.56
2023-01-21T16:37:44.224Z,103429.59
2023-01-21T16:39:46.240Z,103428.47
2023-01-21T16:42:01.243Z,103428.38
2023-01-21T16:44:05.421Z,103421.41
2023-01-21T16:46:13.040Z,103433.59
2023-01-21T16:48:22.111Z,103423.91
2023-01-21T16:50:26.603Z,103435.03
2023-01-21T16:52:28.502Z,103431.81
2023-01-21T16:54:32.281Z,103426.59
2023-01-21T16:56:33.736Z,103431.06
2023-01-21T16:58:35.318Z,103429.19
2023-01-21T17:00:36.767Z,103428.22
2023-01-21T17:02:38.350Z,103425.63
2023-01-21T17:04:39.877Z,103426.53
2023-01-21T17:06:44.277Z,103429.84
2023-01-21T17:08:51.897Z,103423.72
2023-01-21T17:11:00.412Z,103421.13
2023-01-21T17:13:07.245Z,103417.47
2023-01-21T17:15:29.702Z,103422.75
2023-01-21T17:17:35.605Z,103424.28
2023-01-21T17:19:40.395Z,103418.09
2023-01-21T17:21:47.016Z,103423.31
2023-01-21T17:23:54.892Z,103430.13
2023-01-21T17:26:02.173Z,103422.97
2023-01-21T17:28:28.613Z,103421.09
2023-01-21T17:30:33.110Z,103422.72
2023-01-21T17:32:34.690Z,103419.16
2023-01-21T17:34:37.861Z,103412.16
2023-01-21T17:36:42.058Z,103418.97
2023-01-21T17:38:45.683Z,103420.59
2023-01-21T17:41:03.687Z,103426.59
2023-01-21T17:43:20.455Z,103419.63
2023-01-21T17:45:30.163Z,103432.53
2023-01-21T17:47:51.563Z,103427.16
2023-01-21T17:50:16.915Z,103433.97
2023-01-21T17:52:20.332Z,103433.78
2023-01-21T17:54:27.497Z,103429.41
2023-01-21T17:56:42.904Z,103436.41
2023-01-21T18:00:47.960Z,103438.00
2023-01-21T18:02:49.482Z,103441.59
2023-01-21T18:04:51.050Z,103444.91
2023-01-21T18:06:54.644Z,103439.00
2023-01-21T18:09:05.885Z,103436.41
2023-01-21T18:11:07.445Z,103431.03
2023-01-21T18:13:15.707Z,103430.94
2023-01-21T18:15:21.002Z,103430.47
2023-01-21T18:17:24.872Z,103425.13
2023-01-21T18:19:34.327Z,103428.69
2023-01-21T18:21:35.797Z,103429.50
2023-01-21T18:23:37.239Z,103430.31
2023-01-21T18:25:39.671Z,103433.53
2023-01-21T18:27:45.377Z,103421.19
2023-01-21T18:29:47.959Z,103425.50
2023-01-21T18:31:52.077Z,103419.41
2023-01-21T18:33:53.643Z,103418.59
2023-01-21T18:35:55.227Z,103417.78
2023-01-21T18:37:56.728Z,103421.38
2023-01-21T18:39:58.205Z,103411.88
2023-01-21T18:41:59.698Z,103415.44
2023-01-21T18:44:01.158Z,103419.03
2023-01-21T18:46:02.748Z,103419.19
2023-01-21T18:48:04.325Z,103410.69
2023-01-21T18:50:06.320Z,103416.06
2023-01-21T18:52:10.822Z,103418.03
2023-01-21T18:54:13.988Z,103422.44
2023-01-21T18:56:16.055Z,103415.63
2023-01-21T18:58:17.738Z,103422.59
2023-01-21T19:00:28.471Z,103418.38
2023-01-21T19:02:30.019Z,103420.97
2023-01-21T19:04:31.499Z,103426.09
2023-01-21T19:06:32.962Z,103425.38
2023-01-21T19:08:34.421Z,103425.38
2023-01-21T19:10:35.860Z,103432.44
2023-01-21T19:12:37.407Z,103434.31
2023-01-21T19:14:38.993Z,103433.59
2023-01-21T19:16:41.614Z,103432.94
2023-01-21T19:18:43.108Z,103427.75
2023-01-21T19:20:44.623Z,103425.31
2023-01-21T19:22:46.645Z,103423.69
2023-01-21T19:24:49.169Z,103423.88
2023-01-21T19:26:50.647Z,103429.94
2023-01-21T19:28:52.958Z,103430.94
2023-01-21T19:30:58.432Z,103433.63
2023-01-21T19:33:03.236Z,103439.88
2023-01-21T19:35:05.164Z,103435.66
2023-01-21T19:37:10.307Z,103440.03
2023-01-21T19:39:19.475Z,103439.22
2023-01-21T19:41:21.001Z,103437.72
2023-01-21T19:43:22.885Z,103441.22
2023-01-21T19:45:28.360Z,103430.09
2023-01-21T19:47:30.135Z,103430.81
2023-01-21T19:49:31.675Z,103430.81
2023-01-21T19:51:33.123Z,103421.41
2023-01-21T19:53:34.860Z,103412.88
2023-01-21T19:55:37.154Z,103418.06
2023-01-21T19:57:40.157Z,103417.34
2023-01-21T19:59:45.107Z,103425.06
2023-01-21T20:01:47.104Z,103423.34
2023-01-21T20:03:59.616Z,103426.03
2023-01-21T20:06:03.561Z,103431.41
2023-01-21T20:08:05.631Z,103433.28
2023-01-21T20:10:14.555Z,103434.09
2023-01-21T20:12:16.123Z,103444.56
2023-01-21T20:14:17.625Z,103444.47
2023-01-21T20:16:21.036Z,103443.59
2023-01-21T20:18:28.067Z,103445.28
2023-01-21T20:20:31.761Z,103452.28
2023-01-21T20:22:33.522Z,103458.38
2023-01-21T20:24:34.970Z,103452.44
2023-01-21T20:26:38.231Z,103444.66
2023-01-21T20:28:44.354Z,103449.13
2023-01-21T20:30:46.841Z,103449.13
2023-01-21T20:32:49.065Z,103452.44
2023-01-21T20:34:50.491Z,103455.28
2023-01-21T20:36:52.312Z,103448.38
2023-01-21T20:38:54.836Z,103452.69
2023-01-21T20:40:57.835Z,103455.22
2023-01-21T20:42:59.322Z,103440.50
2023-01-21T20:45:00.766Z,103440.50
2023-01-21T20:47:02.380Z,103447.50
2023-01-21T20:49:03.857Z,103445.88
2023-01-21T20:51:05.939Z,103435.38
2023-01-21T20:53:10.055Z,103445.78
2023-01-21T20:55:12.986Z,103450.16
2023-01-21T20:57:14.476Z,103442.28
2023-01-21T20:59:16.046Z,103453.59
2023-01-21T21:01:19.833Z,103438.06
2023-01-21T21:03:21.381Z,103441.47
2023-01-21T21:05:23.953Z,103447.41
2023-01-21T21:07:26.728Z,103445.53
2023-01-21T21:09:28.759Z,103442.84
2023-01-21T21:11:30.245Z,103446.25
2023-01-21T21:13:31.689Z,103449.69
2023-01-21T21:15:35.464Z,103449.50
2023-01-21T21:17:37.015Z,103444.22
2023-01-21T21:19:38.465Z,103450.31
2023-01-21T21:21:39.931Z,103453.72
2023-01-21T21:23:41.591Z,103452.91
2023-01-21T21:25:45.134Z,103449.44
2023-01-21T21:27:47.137Z,103446.75
2023-01-21T21:29:48.581Z,103447.56
2023-01-21T21:31:50.184Z,103441.47
2023-01-21T21:33:52.088Z,103440.50
2023-01-21T21:35:53.533Z,103439.59
2023-01-21T21:37:57.251Z,103438.78
2023-01-21T21:39:58.829Z,103437.88
2023-01-21T21:42:18.580Z,103433.50
2023-01-21T21:44:20.052Z,103442.84
2023-01-21T21:46:39.870Z,103436.72
2023-01-21T21:48:42.530Z,103437.63
2023-01-21T21:50:44.070Z,103443.81
2023-01-21T21:52:45.624Z,103442.19
2023-01-21T21:54:47.125Z,103438.69
2023-01-21T21:56:48.651Z,103441.38
2023-01-21T21:58:51.101Z,103450.97
2023-01-21T22:00:54.106Z,103453.66
2023-01-21T22:03:02.491Z,103447.63
2023-01-21T22:05:04.192Z,103454.53
2023-01-21T22:07:05.713Z,103449.19
2023-01-21T22:09:07.312Z,103447.56
2023-01-21T22:11:12.733Z,103458.03
2023-01-21T22:13:14.191Z,103458.13
2023-01-21T22:15:16.017Z,103448.44
2023-01-21T22:17:17.569Z,103449.34
2023-01-21T22:19:19.132Z,103451.94
2023-01-21T22:21:23.280Z,103447.56
2023-01-21T22:23:24.955Z,103450.97
2023-01-21T22:25:26.445Z,103454.53
2023-01-21T22:27:27.923Z,103452.75
2023-01-21T22:29:29.670Z,103450.88
2023-01-21T22:31:32.624Z,103443.97
2023-01-21T22:33:35.129Z,103450.81
2023-01-21T22:35:39.579Z,103448.28
2023-01-21T22:37:41.038Z,103453.47
2023-01-21T22:39:42.499Z,103452.59
2023-01-21T22:41:44.149Z,103451.63
2023-01-21T22:43:48.385Z,103443.81
2023-01-21T22:45:51.820Z,103446.41
2023-01-21T22:47:53.321Z,103441.22
2023-01-21T22:49:54.762Z,103438.69
2023-01-21T22:51:56.292Z,103439.50
2023-01-21T22:54:00.086Z,103440.41
2023-01-21T22:56:04.545Z,103436.09
2023-01-21T22:58:06.278Z,103434.41
2023-01-21T23:00:11.338Z,103437.09
2023-01-21T23:02:12.793Z,103433.41
2023-01-21T23:04:15.735Z,103425.53
2023-01-21T23:06:17.887Z,103425.53
2023-01-21T23:08:19.856Z,103431.50
2023-01-21T23:10:21.540Z,103426.25
2023-01-21T23:12:23.049Z,103428.84
2023-01-21T23:14:24.595Z,103427.25
2023-01-21T23:16:26.129Z,103421.31
2023-01-21T23:18:28.700Z,103424.00
2023-01-21T23:20:30.162Z,103421.31
2023-01-21T23:22:31.606Z,103413.53
2023-01-21T23:24:34.087Z,103410.13
2023-01-21T23:26:36.264Z,103411.00
2023-01-21T23:28:37.909Z,103418.00
2023-01-21T23:30:39.374Z,103417.19
2023-01-21T23:32:41.107Z,103411.81
2023-01-21T23:34:42.582Z,103413.59
2023-01-21T23:36:44.101Z,103405.81
2023-01-21T23:38:46.166Z,103412.72
2023-01-21T23:40:47.638Z,103407.44
2023-01-21T23:42:49.780Z,103410.84
2023-01-21T23:44:51.401Z,103402.31
2023-01-21T23:46:53.071Z,103402.41
2023-01-21T23:48:54.695Z,103402.41
2023-01-21T23:51:05.104Z,103403.28
2023-01-21T23:53:06.598Z,103399.88
2023-01-21T23:55:09.871Z,103396.47
2023-01-21T23:57:12.251Z,103397.28
2023-01-21T23:59:13.770Z,103390.38
